createdAt,value
2018-08-03T00:02:22.236Z,4.00
2018-08-03T00:04:51.326Z,4.40
2018-08-03T00:07:20.393Z,4.03
2018-08-03T00:09:49.534Z,3.77
2018-08-03T00:12:18.532Z,4.43
2018-08-03T00:14:47.300Z,4.40
2018-08-03T00:17:16.464Z,4.50
2018-08-03T00:19:45.534Z,5.03
2018-08-03T00:22:14.614Z,4.60
2018-08-03T00:24:43.632Z,5.17
2018-08-03T00:27:12.727Z,4.77
2018-08-03T00:29:41.832Z,4.60
2018-08-03T00:32:10.900Z,4.80
2018-08-03T00:34:40.040Z,5.23
2018-08-03T00:37:09.108Z,4.73
2018-08-03T00:39:38.162Z,5.13
2018-08-03T00:42:07.302Z,5.00
2018-08-03T00:44:36.422Z,4.70
2018-08-03T00:47:05.638Z,5.37
2018-08-03T00:49:34.658Z,5.03
2018-08-03T00:52:03.708Z,5.57
2018-08-03T00:54:32.982Z,4.80
2018-08-03T00:57:02.066Z,4.60
2018-08-03T00:59:31.181Z,4.80
2018-08-03T01:02:00.416Z,4.80
2018-08-03T01:04:29.477Z,5.10
2018-08-03T01:06:58.665Z,4.60
2018-08-03T01:09:27.756Z,4.50
2018-08-03T01:11:56.877Z,4.57
2018-08-03T01:14:25.907Z,4.87
2018-08-03T01:16:55.012Z,4.87
2018-08-03T01:19:24.060Z,4.80
2018-08-03T01:21:53.149Z,5.07
2018-08-03T01:24:22.323Z,5.43
2018-08-03T01:26:51.443Z,5.23
2018-08-03T01:29:20.529Z,5.07
2018-08-03T01:31:49.725Z,4.83
2018-08-03T01:34:18.819Z,5.90
2018-08-03T01:36:47.920Z,5.60
2018-08-03T01:39:17.011Z,5.40
2018-08-03T01:41:46.210Z,5.50
2018-08-03T01:44:15.200Z,5.57
2018-08-03T01:46:44.289Z,5.03
2018-08-03T01:49:13.405Z,5.27
2018-08-03T01:51:42.541Z,5.30
2018-08-03T01:54:11.705Z,5.13
2018-08-03T01:56:40.796Z,5.23
2018-08-03T01:59:09.976Z,5.60
2018-08-03T02:01:39.137Z,5.47
2018-08-03T02:04:08.191Z,5.90
2018-08-03T02:06:37.295Z,6.00
2018-08-03T02:09:08.100Z,5.97
2018-08-03T02:11:37.481Z,6.20
2018-08-03T02:14:06.681Z,6.43
2018-08-03T02:16:35.755Z,6.20
2018-08-03T02:19:04.873Z,6.67
2018-08-03T02:21:33.897Z,6.17
2018-08-03T02:24:02.973Z,5.97
2018-08-03T02:26:33.545Z,5.93
2018-08-03T02:29:02.657Z,6.50
2018-08-03T02:31:31.679Z,5.93
2018-08-03T02:34:01.091Z,5.97
2018-08-03T02:36:30.101Z,5.27
2018-08-03T02:38:59.218Z,5.43
2018-08-03T02:41:28.333Z,5.70
2018-08-03T02:43:57.370Z,6.30
2018-08-03T02:46:26.400Z,6.10
2018-08-03T02:48:55.502Z,5.80
2018-08-03T02:51:24.600Z,5.50
2018-08-03T02:53:53.692Z,6.67
2018-08-03T02:56:22.766Z,5.73
2018-08-03T02:58:51.983Z,6.40
2018-08-03T03:01:21.061Z,6.17
2018-08-03T03:03:50.258Z,6.70
2018-08-03T03:06:19.930Z,6.30
2018-08-03T03:08:48.796Z,6.63
2018-08-03T03:11:17.713Z,7.07
2018-08-03T03:13:46.742Z,6.73
2018-08-03T03:16:16.039Z,6.70
2018-08-03T03:18:45.376Z,7.33
2018-08-03T03:21:14.439Z,7.03
2018-08-03T03:23:43.562Z,6.90
2018-08-03T03:26:12.670Z,7.70
2018-08-03T03:28:41.830Z,8.07
2018-08-03T03:31:10.896Z,8.03
2018-08-03T03:33:39.941Z,7.77
2018-08-03T03:36:09.098Z,7.90
2018-08-03T03:38:38.268Z,7.93
2018-08-03T03:41:07.281Z,7.53
2018-08-03T03:43:36.282Z,7.10
2018-08-03T03:46:05.752Z,6.97
2018-08-03T03:48:34.834Z,8.90
2018-08-03T03:51:04.014Z,7.97
2018-08-03T03:53:33.112Z,7.87
2018-08-03T03:56:02.336Z,8.13
2018-08-03T03:58:31.418Z,9.10
2018-08-03T04:01:00.504Z,8.00
2018-08-03T04:03:29.654Z,7.97
2018-08-03T04:05:58.754Z,8.60
2018-08-03T04:08:27.900Z,8.93
2018-08-03T04:10:56.949Z,7.83
2018-08-03T04:13:26.094Z,7.83
2018-08-03T04:15:55.417Z,8.13
2018-08-03T04:18:24.483Z,8.87
2018-08-03T04:20:53.932Z,8.17
2018-08-03T04:23:22.978Z,9.60
2018-08-03T04:25:52.088Z,10.00
2018-08-03T04:28:21.151Z,10.30
2018-08-03T04:30:50.236Z,9.07
2018-08-03T04:33:19.403Z,8.30
2018-08-03T04:35:48.477Z,9.60
2018-08-03T04:38:17.644Z,9.87
2018-08-03T04:40:46.772Z,10.27
2018-08-03T04:43:16.952Z,10.33
2018-08-03T04:45:46.058Z,9.40
2018-08-03T04:48:15.114Z,8.90
2018-08-03T04:50:44.253Z,9.07
2018-08-03T04:53:13.435Z,8.63
2018-08-03T04:55:42.610Z,9.07
2018-08-03T04:58:11.445Z,9.27
2018-08-03T05:00:40.482Z,9.17
2018-08-03T05:03:09.597Z,9.10
2018-08-03T05:05:38.745Z,8.77
2018-08-03T05:08:07.767Z,9.00
2018-08-03T05:10:36.829Z,8.97
2018-08-03T05:13:05.933Z,9.57
2018-08-03T05:15:35.092Z,9.57
2018-08-03T05:18:04.079Z,9.80
2018-08-03T05:20:33.181Z,9.43
2018-08-03T05:23:02.383Z,9.57
2018-08-03T05:25:31.469Z,9.97
2018-08-03T05:28:00.553Z,10.20
2018-08-03T05:30:29.574Z,9.50
2018-08-03T05:32:58.649Z,8.87
2018-08-03T05:35:27.793Z,9.03
2018-08-03T05:37:56.917Z,9.90
2018-08-03T05:40:26.036Z,10.67
2018-08-03T05:42:55.785Z,10.10
2018-08-03T05:45:24.857Z,10.13
2018-08-03T05:47:53.854Z,10.90
2018-08-03T05:50:23.024Z,10.30
2018-08-03T05:52:52.114Z,11.13
2018-08-03T05:55:21.140Z,10.27
2018-08-03T05:57:50.251Z,10.00
2018-08-03T06:00:19.364Z,9.20
2018-08-03T06:02:48.741Z,10.10
2018-08-03T06:05:18.050Z,9.63
2018-08-03T06:07:47.149Z,10.40
2018-08-03T06:10:16.380Z,10.23
2018-08-03T06:12:45.492Z,10.37
2018-08-03T06:15:14.615Z,10.63
2018-08-03T06:17:43.765Z,10.40
2018-08-03T06:20:13.705Z,9.80
2018-08-03T06:22:42.924Z,10.40
2018-08-03T06:25:12.073Z,10.33
2018-08-03T06:27:41.124Z,9.70
2018-08-03T06:30:11.682Z,10.03
2018-08-03T06:32:40.734Z,10.53
2018-08-03T06:35:09.700Z,10.37
2018-08-03T06:37:38.728Z,10.50
2018-08-03T06:40:07.766Z,9.90
2018-08-03T06:42:36.736Z,10.70
2018-08-03T06:45:05.880Z,10.43
2018-08-03T06:47:34.980Z,10.17
2018-08-03T06:50:04.332Z,9.73
2018-08-03T06:52:33.429Z,9.57
2018-08-03T06:55:02.536Z,9.47
2018-08-03T06:57:31.610Z,9.43
2018-08-03T07:00:00.757Z,10.17
2018-08-03T07:02:29.556Z,9.00
2018-08-03T07:04:58.444Z,8.83
2018-08-03T07:07:27.536Z,8.97
2018-08-03T07:09:56.541Z,8.73
2018-08-03T07:12:25.328Z,9.03
2018-08-03T07:14:54.243Z,7.80
2018-08-03T07:17:23.252Z,8.47
2018-08-03T07:19:52.488Z,7.67
2018-08-03T07:22:21.592Z,7.43
2018-08-03T07:24:50.486Z,7.50
2018-08-03T07:27:19.489Z,7.37
2018-08-03T07:29:48.512Z,7.03
2018-08-03T07:32:17.592Z,7.10
2018-08-03T07:34:46.757Z,7.63
2018-08-03T07:37:15.948Z,6.30
2018-08-03T07:39:46.050Z,7.67
2018-08-03T07:42:15.111Z,7.73
2018-08-03T07:44:44.255Z,7.70
2018-08-03T07:47:13.283Z,6.77
2018-08-03T07:49:42.274Z,6.40
2018-08-03T07:52:11.458Z,7.37
2018-08-03T07:54:40.459Z,6.40
2018-08-03T07:57:09.259Z,7.20
2018-08-03T07:59:38.252Z,6.57
2018-08-03T08:02:07.040Z,6.50
2018-08-03T08:04:36.157Z,5.90
2018-08-03T08:07:05.437Z,6.00
2018-08-03T08:09:35.388Z,6.53
2018-08-03T08:12:04.881Z,6.10
2018-08-03T08:14:33.953Z,5.60
2018-08-03T08:17:03.070Z,6.40
2018-08-03T08:19:32.189Z,5.30
2018-08-03T08:22:01.295Z,5.27
2018-08-03T08:24:30.365Z,5.20
2018-08-03T08:26:59.473Z,5.23
2018-08-03T08:29:28.603Z,4.90
2018-08-03T08:31:57.851Z,5.10
2018-08-03T08:34:27.036Z,4.43
2018-08-03T08:36:56.505Z,4.47
2018-08-03T08:39:25.573Z,4.77
2018-08-03T08:41:55.259Z,4.17
2018-08-03T08:44:24.358Z,4.37
2018-08-03T08:46:53.477Z,3.80
2018-08-03T08:49:22.745Z,4.37
2018-08-03T08:51:51.754Z,4.17
2018-08-03T08:54:20.851Z,4.37
2018-08-03T08:56:49.832Z,4.70
2018-08-03T08:59:18.909Z,4.50
2018-08-03T09:01:48.017Z,4.30
2018-08-03T09:04:17.131Z,4.60
2018-08-03T09:06:46.337Z,4.43
2018-08-03T09:09:15.427Z,4.10
2018-08-03T09:11:45.541Z,4.07
2018-08-03T09:14:14.648Z,4.10
2018-08-03T09:16:43.792Z,4.47
2018-08-03T09:19:12.814Z,5.30
2018-08-03T09:21:41.966Z,4.37
2018-08-03T09:24:11.030Z,4.43
2018-08-03T09:26:40.742Z,4.23
2018-08-03T09:29:09.826Z,4.63
2018-08-03T09:31:39.728Z,4.50
2018-08-03T09:34:08.902Z,4.60
2018-08-03T09:36:38.025Z,4.30
2018-08-03T09:39:08.336Z,4.20
2018-08-03T09:41:37.541Z,4.33
2018-08-03T09:44:07.149Z,4.10
2018-08-03T09:46:36.250Z,3.87
2018-08-03T09:49:05.704Z,3.73
2018-08-03T09:51:34.853Z,3.80
2018-08-03T09:54:03.935Z,4.00
2018-08-03T09:56:34.027Z,3.70
2018-08-03T09:59:03.115Z,3.93
2018-08-03T10:01:32.239Z,3.87
2018-08-03T10:04:01.350Z,4.13
2018-08-03T10:06:30.488Z,3.80
2018-08-03T10:08:59.993Z,3.83
2018-08-03T10:11:29.114Z,3.63
2018-08-03T10:13:58.183Z,3.73
2018-08-03T10:16:27.271Z,3.70
2018-08-03T10:18:56.352Z,3.43
2018-08-03T10:21:25.448Z,3.50
2018-08-03T10:23:54.535Z,4.20
2018-08-03T10:26:23.706Z,3.93
2018-08-03T10:28:53.023Z,3.80
2018-08-03T10:31:22.127Z,4.30
2018-08-03T10:33:51.274Z,3.90
2018-08-03T10:36:20.292Z,3.80
2018-08-03T10:38:49.306Z,4.20
2018-08-03T10:41:18.296Z,3.63
2018-08-03T10:43:47.424Z,3.60
2018-08-03T10:46:16.512Z,3.60
2018-08-03T10:48:45.945Z,3.80
2018-08-03T10:51:15.100Z,3.90
2018-08-03T10:53:44.288Z,4.00
2018-08-03T10:56:13.385Z,4.20
2018-08-03T10:58:43.122Z,4.30
2018-08-03T11:01:12.770Z,4.00
2018-08-03T11:03:41.892Z,4.03
2018-08-03T11:06:11.909Z,4.30
2018-08-03T11:08:41.052Z,4.10
2018-08-03T11:11:10.146Z,3.80
2018-08-03T11:13:39.284Z,3.90
2018-08-03T11:16:08.346Z,3.70
2018-08-03T11:18:37.424Z,4.60
2018-08-03T11:21:06.564Z,4.53
2018-08-03T11:23:35.688Z,4.43
2018-08-03T11:26:04.993Z,4.33
2018-08-03T11:28:34.188Z,4.27
2018-08-03T11:31:03.264Z,4.43
2018-08-03T11:33:32.406Z,4.10
2018-08-03T11:36:01.589Z,4.67
2018-08-03T11:38:30.878Z,4.30
2018-08-03T11:41:00.053Z,4.60
2018-08-03T11:43:29.928Z,4.80
2018-08-03T11:45:58.949Z,4.63
2018-08-03T11:48:32.188Z,4.40
2018-08-03T11:51:01.348Z,3.97
2018-08-03T11:53:30.428Z,4.33
2018-08-03T11:55:59.490Z,4.07
2018-08-03T11:58:28.561Z,4.23
2018-08-03T12:00:57.728Z,4.00
2018-08-03T12:03:26.783Z,3.97
2018-08-03T12:05:55.855Z,4.30
2018-08-03T12:08:25.118Z,3.93
2018-08-03T12:10:53.899Z,4.10
2018-08-03T12:13:22.649Z,4.13
2018-08-03T12:15:51.649Z,4.13
2018-08-03T12:18:20.617Z,4.20
2018-08-03T12:20:49.709Z,4.37
2018-08-03T12:23:18.853Z,4.50
2018-08-03T12:25:47.917Z,3.97
2018-08-03T12:28:16.969Z,3.90
2018-08-03T12:30:46.262Z,3.80
2018-08-03T12:33:15.310Z,4.20
2018-08-03T12:35:45.023Z,3.90
2018-08-03T12:38:14.217Z,4.10
2018-08-03T12:40:44.163Z,3.60
2018-08-03T12:43:13.523Z,4.00
2018-08-03T12:45:42.707Z,3.53
2018-08-03T12:48:12.523Z,3.93
2018-08-03T12:50:41.724Z,3.80
2018-08-03T12:53:11.161Z,3.63
2018-08-03T12:55:40.259Z,3.50
2018-08-03T12:58:09.565Z,3.33
2018-08-03T13:00:38.622Z,3.87
2018-08-03T13:03:07.765Z,4.07
2018-08-03T13:05:36.877Z,3.50
2018-08-03T13:08:06.069Z,3.60
2018-08-03T13:10:35.303Z,3.67
2018-08-03T13:13:04.490Z,3.30
2018-08-03T13:15:33.617Z,4.17
2018-08-03T13:18:02.641Z,3.93
2018-08-03T13:20:31.701Z,4.00
2018-08-03T13:23:02.327Z,3.93
2018-08-03T13:25:31.651Z,3.80
2018-08-03T13:28:01.287Z,3.50
2018-08-03T13:30:30.419Z,3.50
2018-08-03T13:32:59.585Z,3.23
2018-08-03T13:35:28.625Z,3.30
2018-08-03T13:37:57.915Z,3.37
2018-08-03T13:40:27.007Z,3.60
2018-08-03T13:42:56.147Z,4.10
2018-08-03T13:45:26.901Z,3.53
2018-08-03T13:47:55.996Z,4.00
2018-08-03T13:50:25.523Z,3.50
2018-08-03T13:52:54.540Z,3.50
2018-08-03T13:55:23.700Z,3.30
2018-08-03T13:57:52.837Z,3.03
2018-08-03T14:00:21.882Z,3.30
2018-08-03T14:02:51.149Z,2.93
2018-08-03T14:05:20.258Z,3.23
2018-08-03T14:07:49.342Z,3.00
2018-08-03T14:10:18.394Z,3.10
2018-08-03T14:12:47.544Z,3.30
2018-08-03T14:15:16.623Z,3.17
2018-08-03T14:17:45.741Z,3.20
2018-08-03T14:20:14.904Z,3.03
2018-08-03T14:22:43.928Z,3.10
2018-08-03T14:25:13.010Z,4.00
2018-08-03T14:27:42.187Z,3.97
2018-08-03T14:30:11.375Z,3.03
2018-08-03T14:32:40.450Z,3.07
2018-08-03T14:35:09.482Z,3.10
2018-08-03T14:37:38.630Z,3.00
2018-08-03T14:40:07.696Z,2.90
2018-08-03T14:42:36.744Z,3.20
2018-08-03T14:45:07.238Z,3.30
2018-08-03T14:47:36.510Z,3.30
2018-08-03T14:50:05.788Z,3.30
2018-08-03T14:52:34.969Z,3.47
2018-08-03T14:55:04.914Z,3.50
2018-08-03T14:57:34.228Z,3.50
2018-08-03T15:00:03.302Z,3.10
2018-08-03T15:02:32.520Z,3.40
2018-08-03T15:05:01.796Z,3.37
2018-08-03T15:07:30.906Z,3.40
2018-08-03T15:10:00.090Z,3.33
2018-08-03T15:12:29.400Z,3.43
2018-08-03T15:14:58.521Z,3.30
2018-08-03T15:17:27.601Z,3.17
2018-08-03T15:19:56.803Z,3.50
2018-08-03T15:22:26.345Z,3.20
2018-08-03T15:24:55.650Z,3.07
2018-08-03T15:27:24.681Z,3.03
2018-08-03T15:29:53.903Z,3.60
2018-08-03T15:32:26.719Z,3.33
2018-08-03T15:34:55.942Z,3.20
2018-08-03T15:37:25.062Z,3.37
2018-08-03T15:39:54.306Z,3.30
2018-08-03T15:42:23.338Z,3.13
2018-08-03T15:44:52.981Z,3.50
2018-08-03T15:47:22.890Z,2.90
2018-08-03T15:49:51.915Z,3.30
2018-08-03T15:52:20.977Z,3.20
2018-08-03T15:54:50.457Z,2.90
2018-08-03T15:57:19.770Z,3.30
2018-08-03T15:59:49.411Z,3.17
2018-08-03T16:02:18.553Z,3.30
2018-08-03T16:04:47.833Z,3.23
2018-08-03T16:07:16.873Z,3.10
2018-08-03T16:09:46.001Z,3.20
2018-08-03T16:12:15.053Z,3.30
2018-08-03T16:14:44.205Z,3.00
2018-08-03T16:17:13.365Z,3.13
2018-08-03T16:19:42.345Z,3.20
2018-08-03T16:22:11.315Z,3.40
2018-08-03T16:24:40.332Z,3.20
2018-08-03T16:27:09.492Z,3.20
2018-08-03T16:29:38.633Z,3.50
2018-08-03T16:32:07.730Z,3.30
2018-08-03T16:34:36.945Z,4.07
2018-08-03T16:37:06.027Z,3.80
2018-08-03T16:39:35.145Z,3.70
2018-08-03T16:42:04.265Z,4.60
2018-08-03T16:44:33.311Z,3.30
2018-08-03T16:47:02.503Z,3.27
2018-08-03T16:49:31.539Z,3.43
2018-08-03T16:52:00.575Z,3.60
2018-08-03T16:54:29.590Z,4.00
2018-08-03T16:56:58.739Z,3.70
2018-08-03T16:59:27.808Z,3.60
2018-08-03T17:01:57.075Z,3.67
2018-08-03T17:04:26.224Z,4.00
2018-08-03T17:06:55.259Z,4.43
2018-08-03T17:09:24.353Z,3.70
2018-08-03T17:11:53.478Z,3.67
2018-08-03T17:14:22.598Z,3.50
2018-08-03T17:16:51.652Z,3.33
2018-08-03T17:19:20.768Z,3.20
2018-08-03T17:21:49.843Z,3.47
2018-08-03T17:24:19.333Z,3.70
2018-08-03T17:26:48.160Z,3.93
2018-08-03T17:29:17.120Z,3.73
2018-08-03T17:31:46.244Z,3.73
2018-08-03T17:34:15.320Z,3.30
2018-08-03T17:36:44.603Z,3.50
2018-08-03T17:39:13.737Z,3.90
2018-08-03T17:41:42.804Z,3.37
2018-08-03T17:44:11.834Z,3.60
2018-08-03T17:46:40.929Z,3.70
2018-08-03T17:49:10.096Z,3.40
2018-08-03T17:51:39.182Z,3.60
2018-08-03T17:54:08.562Z,3.97
2018-08-03T17:56:37.392Z,3.67
2018-08-03T17:59:06.447Z,3.80
2018-08-03T18:01:35.712Z,3.50
2018-08-03T18:04:04.780Z,4.00
2018-08-03T18:06:33.756Z,3.93
2018-08-03T18:09:03.376Z,3.60
2018-08-03T18:11:32.429Z,3.50
2018-08-03T18:14:01.448Z,3.80
2018-08-03T18:16:30.455Z,3.73
2018-08-03T18:18:59.550Z,3.50
2018-08-03T18:21:28.671Z,3.90
2018-08-03T18:23:57.748Z,3.60
2018-08-03T18:26:27.350Z,3.70
2018-08-03T18:28:56.482Z,3.27
2018-08-03T18:31:25.546Z,3.70
2018-08-03T18:33:54.864Z,3.43
2018-08-03T18:36:23.941Z,3.80
2018-08-03T18:38:53.229Z,3.80
2018-08-03T18:41:22.502Z,3.77
2018-08-03T18:43:51.748Z,3.50
2018-08-03T18:46:21.232Z,3.50
2018-08-03T18:48:50.819Z,3.50
2018-08-03T18:51:19.602Z,3.80
2018-08-03T18:53:48.515Z,3.67
2018-08-03T18:56:17.600Z,3.47
2018-08-03T18:58:46.968Z,3.50
2018-08-03T19:01:16.370Z,3.50
2018-08-03T19:03:45.513Z,3.50
2018-08-03T19:06:14.627Z,3.50
2018-08-03T19:08:43.825Z,3.57
2018-08-03T19:11:12.844Z,3.07
2018-08-03T19:13:41.946Z,3.30
2018-08-03T19:16:11.143Z,3.40
2018-08-03T19:18:40.309Z,3.57
2018-08-03T19:21:09.370Z,3.30
2018-08-03T19:23:38.454Z,3.20
2018-08-03T19:26:07.597Z,3.20
2018-08-03T19:28:36.743Z,3.40
2018-08-03T19:31:05.830Z,2.90
2018-08-03T19:33:34.974Z,3.13
2018-08-03T19:36:04.081Z,3.20
2018-08-03T19:38:33.276Z,3.43
2018-08-03T19:41:02.524Z,3.33
2018-08-03T19:43:31.577Z,3.37
2018-08-03T19:46:00.708Z,3.23
2018-08-03T19:48:29.873Z,3.13
2018-08-03T19:50:58.921Z,3.20
2018-08-03T19:53:28.189Z,3.00
2018-08-03T19:55:57.384Z,3.00
2018-08-03T19:58:26.510Z,2.97
2018-08-03T20:00:55.670Z,3.33
2018-08-03T20:03:24.758Z,3.10
2018-08-03T20:05:53.947Z,2.73
2018-08-03T20:08:23.249Z,3.27
2018-08-03T20:10:53.072Z,3.57
2018-08-03T20:13:22.208Z,3.07
2018-08-03T20:15:51.284Z,3.10
2018-08-03T20:18:20.356Z,3.17
2018-08-03T20:20:49.348Z,2.70
2018-08-03T20:23:18.487Z,3.20
2018-08-03T20:25:47.631Z,3.00
2018-08-03T20:28:16.772Z,3.47
2018-08-03T20:30:45.917Z,2.97
2018-08-03T20:33:15.049Z,3.10
2018-08-03T20:35:44.100Z,3.20
2018-08-03T20:38:13.131Z,3.27
2018-08-03T20:40:42.312Z,3.23
2018-08-03T20:43:11.514Z,3.10
2018-08-03T20:45:40.630Z,3.60
2018-08-03T20:48:09.766Z,3.20
2018-08-03T20:50:38.773Z,3.47
2018-08-03T20:53:07.899Z,3.20
2018-08-03T20:55:37.038Z,2.97
2018-08-03T20:58:07.012Z,2.80
2018-08-03T21:00:36.103Z,3.20
2018-08-03T21:03:05.253Z,3.40
2018-08-03T21:05:34.293Z,3.13
2018-08-03T21:08:03.404Z,3.30
2018-08-03T21:10:32.692Z,2.90
2018-08-03T21:13:01.832Z,3.30
2018-08-03T21:15:30.857Z,3.20
2018-08-03T21:17:59.978Z,3.13
2018-08-03T21:20:29.056Z,3.00
2018-08-03T21:25:22.719Z,2.80
2018-08-03T21:27:51.740Z,2.93
2018-08-03T21:30:20.858Z,3.00
2018-08-03T21:32:49.940Z,3.00
2018-08-03T21:35:19.143Z,3.40
2018-08-03T21:37:48.236Z,3.43
2018-08-03T21:40:17.388Z,3.33
2018-08-03T21:42:46.432Z,3.00
2018-08-03T21:45:15.454Z,3.00
2018-08-03T21:47:44.537Z,3.30
2018-08-03T21:50:13.632Z,3.40
2018-08-03T21:52:42.736Z,3.20
2018-08-03T21:55:11.779Z,3.30
2018-08-03T21:57:40.810Z,3.80
2018-08-03T22:00:13.861Z,3.20
2018-08-03T22:02:42.939Z,3.10
2018-08-03T22:05:11.935Z,3.43
2018-08-03T22:07:40.969Z,3.30
2018-08-03T22:10:10.092Z,3.27
2018-08-03T22:12:39.173Z,3.20
2018-08-03T22:15:08.871Z,3.10
2018-08-03T22:17:37.973Z,3.20
2018-08-03T22:20:07.172Z,3.50
2018-08-03T22:22:36.377Z,3.33
2018-08-03T22:25:06.209Z,3.30
2018-08-03T22:27:36.499Z,3.17
2018-08-03T22:30:05.882Z,3.40
2018-08-03T22:32:35.074Z,3.53
2018-08-03T22:35:04.073Z,3.40
2018-08-03T22:37:33.120Z,3.40
2018-08-03T22:40:02.397Z,3.60
2018-08-03T22:42:31.589Z,3.37
2018-08-03T22:45:00.724Z,4.13
2018-08-03T22:47:29.782Z,3.70
2018-08-03T22:49:58.914Z,3.63
2018-08-03T22:52:27.976Z,3.60
2018-08-03T22:54:57.068Z,4.13
2018-08-03T22:57:26.270Z,3.90
2018-08-03T22:59:55.402Z,3.70
2018-08-03T23:02:24.548Z,3.57
2018-08-03T23:05:57.404Z,4.00
2018-08-03T23:08:26.446Z,4.10
2018-08-03T23:10:55.554Z,3.90
2018-08-03T23:13:24.660Z,4.17
2018-08-03T23:15:54.073Z,4.10
2018-08-03T23:18:23.326Z,4.00
2018-08-03T23:20:52.438Z,4.03
2018-08-03T23:23:21.632Z,3.57
2018-08-03T23:25:50.715Z,4.00
2018-08-03T23:28:19.834Z,3.97
2018-08-03T23:30:48.956Z,4.30
2018-08-03T23:33:18.118Z,4.03
2018-08-03T23:35:47.228Z,3.90
2018-08-03T23:38:16.270Z,4.20
2018-08-03T23:40:45.330Z,4.07
2018-08-03T23:43:14.464Z,3.67
2018-08-03T23:45:43.470Z,4.13
2018-08-03T23:48:12.468Z,4.30
2018-08-03T23:50:41.538Z,4.43
2018-08-03T23:53:10.584Z,4.27
2018-08-03T23:55:40.334Z,4.60
2018-08-03T23:58:09.703Z,4.50
